createdAt,value
2018-12-17T00:00:55.208Z,31.37
2018-12-17T00:03:27.924Z,28.90
2018-12-17T00:05:56.260Z,30.60
2018-12-17T00:08:24.535Z,29.77
2018-12-17T00:10:52.736Z,30.03
2018-12-17T00:13:20.955Z,31.00
2018-12-17T00:15:49.493Z,30.43
2018-12-17T00:18:17.679Z,32.30
2018-12-17T00:20:45.844Z,33.60
2018-12-17T00:23:14.033Z,34.20
2018-12-17T00:25:42.243Z,34.17
2018-12-17T00:28:10.550Z,33.57
2018-12-17T00:30:38.700Z,32.97
2018-12-17T00:33:06.967Z,31.43
2018-12-17T00:35:35.213Z,27.87
2018-12-17T00:38:03.454Z,26.60
2018-12-17T00:40:31.819Z,27.03
2018-12-17T00:43:00.004Z,25.43
2018-12-17T00:45:28.174Z,25.97
2018-12-17T00:47:56.337Z,26.67
2018-12-17T00:50:24.521Z,29.50
2018-12-17T00:52:52.684Z,29.73
2018-12-17T00:55:20.879Z,31.63
2018-12-17T00:57:50.163Z,35.60
2018-12-17T01:00:20.081Z,33.53
2018-12-17T01:02:48.232Z,30.63
2018-12-17T01:05:16.684Z,31.17
2018-12-17T01:07:44.830Z,30.43
2018-12-17T01:10:13.059Z,30.47
2018-12-17T01:12:41.267Z,28.80
2018-12-17T01:15:09.615Z,30.57
2018-12-17T01:17:38.004Z,29.23
2018-12-17T01:20:06.803Z,32.20
2018-12-17T01:22:34.952Z,27.10
2018-12-17T01:25:03.968Z,28.70
2018-12-17T01:27:33.163Z,25.57
2018-12-17T01:30:01.324Z,23.03
2018-12-17T01:32:29.619Z,22.87
2018-12-17T01:34:57.791Z,22.53
2018-12-17T01:37:25.955Z,20.10
2018-12-17T01:39:54.177Z,20.13
2018-12-17T01:42:22.363Z,22.83
2018-12-17T01:44:50.542Z,22.20
2018-12-17T01:47:18.708Z,22.40
2018-12-17T01:49:46.926Z,20.93
2018-12-17T01:52:15.076Z,20.83
2018-12-17T01:54:43.244Z,19.93
2018-12-17T01:57:11.507Z,20.47
2018-12-17T01:59:40.280Z,20.77
2018-12-17T02:02:08.692Z,21.10
2018-12-17T02:04:36.963Z,21.40
2018-12-17T02:07:05.116Z,20.20
2018-12-17T02:09:33.564Z,20.57
2018-12-17T02:12:01.736Z,20.20
2018-12-17T02:14:29.915Z,20.50
2018-12-17T02:16:58.152Z,18.73
2018-12-17T02:19:26.404Z,17.43
2018-12-17T02:21:54.650Z,18.30
2018-12-17T02:24:22.809Z,19.20
2018-12-17T02:26:51.024Z,20.03
2018-12-17T02:29:19.271Z,17.23
2018-12-17T02:31:47.429Z,19.40
2018-12-17T02:34:15.615Z,18.83
2018-12-17T02:36:43.928Z,20.83
2018-12-17T02:39:12.118Z,19.87
2018-12-17T02:41:47.237Z,24.63
2018-12-17T02:44:15.711Z,24.17
2018-12-17T02:46:44.003Z,27.53
2018-12-17T02:49:12.644Z,25.43
2018-12-17T02:51:41.856Z,28.03
2018-12-17T02:54:10.072Z,24.83
2018-12-17T02:56:38.268Z,25.70
2018-12-17T02:59:06.469Z,26.53
2018-12-17T03:01:34.644Z,23.87
2018-12-17T03:04:02.913Z,25.50
2018-12-17T03:06:32.094Z,23.13
2018-12-17T03:09:00.285Z,25.27
2018-12-17T03:11:28.515Z,25.63
2018-12-17T03:13:57.460Z,24.63
2018-12-17T03:16:25.662Z,23.00
2018-12-17T03:18:54.647Z,23.87
2018-12-17T03:21:24.424Z,22.93
2018-12-17T03:23:52.666Z,21.97
2018-12-17T03:26:20.865Z,23.17
2018-12-17T03:28:51.811Z,21.33
2018-12-17T03:31:19.250Z,21.90
2018-12-17T03:33:47.564Z,19.13
2018-12-17T03:36:15.825Z,18.57
2018-12-17T03:38:44.578Z,19.70
2018-12-17T03:41:12.921Z,18.90
2018-12-17T03:43:41.194Z,17.77
2018-12-17T03:46:10.261Z,18.20
2018-12-17T03:51:13.456Z,19.40
2018-12-17T03:53:41.636Z,18.57
2018-12-17T03:56:09.804Z,19.27
2018-12-17T03:58:38.005Z,18.87
2018-12-17T04:01:06.261Z,21.03
2018-12-17T04:03:34.429Z,21.63
2018-12-17T04:06:02.710Z,22.07
2018-12-17T04:08:31.973Z,21.07
2018-12-17T04:11:00.156Z,21.60
2018-12-17T04:13:28.333Z,22.80
2018-12-17T04:15:56.662Z,23.27
2018-12-17T04:18:25.758Z,22.83
2018-12-17T04:20:53.899Z,23.90
2018-12-17T04:23:22.140Z,22.93
2018-12-17T04:25:50.345Z,24.67
2018-12-17T04:28:18.592Z,24.90
2018-12-17T04:30:53.389Z,28.97
2018-12-17T04:33:21.559Z,28.47
2018-12-17T04:35:49.843Z,31.23
2018-12-17T04:38:18.114Z,26.30
2018-12-17T04:40:46.291Z,28.83
2018-12-17T04:43:15.184Z,29.67
2018-12-17T04:45:44.291Z,31.07
2018-12-17T04:48:27.455Z,38.73
2018-12-17T04:50:55.628Z,35.03
2018-12-17T04:53:23.815Z,29.30
2018-12-17T04:55:51.991Z,33.07
2018-12-17T04:58:20.210Z,33.63
2018-12-17T05:00:48.460Z,31.30
2018-12-17T05:03:16.708Z,31.93
2018-12-17T05:05:44.884Z,32.23
2018-12-17T05:08:13.101Z,30.77
2018-12-17T05:10:41.373Z,31.70
2018-12-17T05:13:10.449Z,29.60
2018-12-17T05:15:39.428Z,30.50
2018-12-17T05:18:07.559Z,30.30
2018-12-17T05:20:35.731Z,31.20
2018-12-17T05:23:03.990Z,30.53
2018-12-17T05:25:33.069Z,32.50
2018-12-17T05:28:01.417Z,30.77
2018-12-17T05:30:29.603Z,32.43
2018-12-17T05:32:57.899Z,34.90
2018-12-17T05:35:28.140Z,35.17
2018-12-17T05:37:56.380Z,36.00
2018-12-17T05:40:24.579Z,32.23
2018-12-17T05:42:52.753Z,34.53
2018-12-17T05:45:20.997Z,31.87
2018-12-17T05:47:49.639Z,34.23
2018-12-17T05:50:17.873Z,31.53
2018-12-17T05:52:46.037Z,29.43
2018-12-17T05:55:16.121Z,27.90
2018-12-17T05:57:44.292Z,27.07
2018-12-17T06:00:12.641Z,26.53
2018-12-17T06:02:40.826Z,28.70
2018-12-17T06:05:09.177Z,28.87
2018-12-17T06:07:38.499Z,29.57
2018-12-17T06:10:06.818Z,26.80
2018-12-17T06:12:35.003Z,27.93
2018-12-17T06:15:03.251Z,26.20
2018-12-17T06:17:31.404Z,25.17
2018-12-17T06:19:59.571Z,24.67
2018-12-17T06:22:27.752Z,23.17
2018-12-17T06:24:56.007Z,20.97
2018-12-17T06:27:24.162Z,23.13
2018-12-17T06:29:52.828Z,23.60
2018-12-17T06:32:21.168Z,23.27
2018-12-17T06:34:49.318Z,28.17
2018-12-17T06:37:18.471Z,25.53
2018-12-17T06:39:48.527Z,27.63
2018-12-17T06:42:18.571Z,23.97
2018-12-17T06:44:46.863Z,23.77
2018-12-17T06:47:15.418Z,26.13
2018-12-17T06:49:43.591Z,27.90
2018-12-17T06:52:11.832Z,26.40
2018-12-17T06:54:40.760Z,24.93
2018-12-17T06:57:09.319Z,26.20
2018-12-17T06:59:42.777Z,26.23
2018-12-17T07:02:11.818Z,25.77
2018-12-17T07:04:40.308Z,25.10
2018-12-17T07:07:09.582Z,24.03
2018-12-17T07:09:38.819Z,26.67
2018-12-17T07:12:07.009Z,27.93
2018-12-17T07:14:36.660Z,28.53
2018-12-17T07:17:05.227Z,28.07
2018-12-17T07:19:33.559Z,29.70
2018-12-17T07:22:01.780Z,26.87
2018-12-17T07:24:30.765Z,26.97
2018-12-17T07:26:58.985Z,41.28
2018-12-17T07:29:27.165Z,27.43
2018-12-17T07:31:55.376Z,26.40
2018-12-17T07:34:23.704Z,23.23
2018-12-17T07:36:52.666Z,20.57
2018-12-17T07:39:21.244Z,23.40
2018-12-17T07:41:49.544Z,31.73
2018-12-17T07:44:17.776Z,24.70
2018-12-17T07:46:46.339Z,28.13
2018-12-17T07:49:14.591Z,24.70
2018-12-17T07:51:42.835Z,30.90
2018-12-17T07:54:10.999Z,24.70
2018-12-17T07:56:39.223Z,25.70
2018-12-17T07:59:07.488Z,23.50
2018-12-17T08:01:35.683Z,23.80
2018-12-17T08:04:03.894Z,23.67
2018-12-17T08:06:32.175Z,25.70
2018-12-17T08:09:00.424Z,22.50
2018-12-17T08:11:28.703Z,23.53
2018-12-17T08:13:57.025Z,28.60
2018-12-17T08:16:25.245Z,22.90
2018-12-17T08:18:54.130Z,26.30
2018-12-17T08:21:23.326Z,23.67
2018-12-17T08:23:51.661Z,22.40
2018-12-17T08:26:19.949Z,25.30
2018-12-17T08:28:48.449Z,28.30
2018-12-17T08:31:16.753Z,25.97
2018-12-17T08:33:44.943Z,26.37
2018-12-17T08:36:13.275Z,23.33
2018-12-17T08:38:41.475Z,25.10
2018-12-17T08:41:11.769Z,24.90
2018-12-17T08:43:41.366Z,20.93
2018-12-17T08:46:09.553Z,19.47
2018-12-17T08:48:37.723Z,19.83
2018-12-17T08:51:06.002Z,21.73
2018-12-17T08:53:34.745Z,22.87
2018-12-17T08:56:03.496Z,21.57
2018-12-17T08:58:31.978Z,19.97
2018-12-17T09:01:00.212Z,19.90
2018-12-17T09:03:28.498Z,21.00
2018-12-17T09:05:57.220Z,20.23
2018-12-17T09:08:25.542Z,19.43
2018-12-17T09:10:53.780Z,20.57
2018-12-17T09:13:22.909Z,20.17
2018-12-17T09:15:51.318Z,21.40
2018-12-17T09:18:19.564Z,21.63
2018-12-17T09:20:47.816Z,20.43
2018-12-17T09:23:16.880Z,19.83
2018-12-17T09:25:45.147Z,21.00
2018-12-17T09:28:13.647Z,21.30
2018-12-17T09:30:43.895Z,20.90
2018-12-17T09:33:12.236Z,21.90
2018-12-17T09:35:40.610Z,18.47
2018-12-17T09:38:08.862Z,18.63
2018-12-17T09:40:37.358Z,16.83
2018-12-17T09:43:05.911Z,18.77
2018-12-17T09:45:38.271Z,18.17
2018-12-17T09:48:07.481Z,38.43
2018-12-17T09:50:36.118Z,31.27
2018-12-17T09:53:04.497Z,25.67
2018-12-17T09:55:32.757Z,14.47
2018-12-17T09:58:01.031Z,24.23
2018-12-17T10:00:29.678Z,18.57
2018-12-17T10:02:58.864Z,38.07
2018-12-17T10:08:45.632Z,12.27
2018-12-17T10:11:24.113Z,11.67
2018-12-17T10:14:27.812Z,12.63
2018-12-17T10:16:58.272Z,10.80
2018-12-17T10:20:37.575Z,12.03
2018-12-17T10:26:17.769Z,11.10
2018-12-17T10:29:09.933Z,11.97
2018-12-17T10:39:58.812Z,10.77
2018-12-17T10:47:27.359Z,17.40
2018-12-17T10:53:46.616Z,12.23
2018-12-17T10:56:14.781Z,15.63
2018-12-17T10:58:44.271Z,14.00
2018-12-17T11:02:18.024Z,16.87
2018-12-17T11:04:54.512Z,12.13
2018-12-17T11:07:22.667Z,11.43
2018-12-17T11:09:50.795Z,11.13
2018-12-17T11:12:18.994Z,11.83
2018-12-17T11:14:47.332Z,12.43
2018-12-17T11:17:15.521Z,13.73
2018-12-17T11:19:43.739Z,13.13
2018-12-17T11:22:11.914Z,12.50
2018-12-17T11:24:40.114Z,12.13
2018-12-17T11:27:08.467Z,12.93
2018-12-17T11:29:36.699Z,13.60
2018-12-17T11:32:11.490Z,14.23
2018-12-17T11:34:35.223Z,14.00
2018-12-17T11:37:07.553Z,15.27
2018-12-17T11:39:35.729Z,16.53
2018-12-17T11:42:04.091Z,14.67
2018-12-17T11:44:32.415Z,15.83
2018-12-17T11:47:00.683Z,16.13
2018-12-17T11:49:28.860Z,15.97
2018-12-17T11:51:57.104Z,14.73
2018-12-17T11:54:25.280Z,15.87
2018-12-17T11:57:05.856Z,16.63
2018-12-17T11:59:34.048Z,15.70
2018-12-17T12:02:02.270Z,16.23
2018-12-17T12:04:31.464Z,16.80
2018-12-17T12:07:00.322Z,15.60
2018-12-17T12:09:30.593Z,16.43
2018-12-17T12:11:58.788Z,16.17
2018-12-17T12:14:27.025Z,15.50
2018-12-17T12:16:55.216Z,17.17
2018-12-17T12:19:23.438Z,14.83
2018-12-17T12:21:51.696Z,16.70
2018-12-17T12:24:20.191Z,17.83
2018-12-17T12:26:49.074Z,18.40
2018-12-17T12:29:18.044Z,17.47
2018-12-17T12:31:46.316Z,20.70
2018-12-17T12:34:15.168Z,19.70
2018-12-17T12:36:43.601Z,19.97
2018-12-17T12:39:12.126Z,19.60
2018-12-17T12:41:50.235Z,17.23
2018-12-17T12:44:19.263Z,17.80
2018-12-17T12:46:47.787Z,19.03
2018-12-17T12:49:16.746Z,17.73
2018-12-17T12:51:47.918Z,17.93
2018-12-17T12:54:16.660Z,18.00
2018-12-17T12:56:45.203Z,18.73
2018-12-17T12:59:13.771Z,16.50
2018-12-17T13:01:42.411Z,18.70
2018-12-17T13:04:11.047Z,92.00
2018-12-17T13:06:40.112Z,30.17
2018-12-17T13:09:08.401Z,19.33
2018-12-17T13:11:36.736Z,18.13
2018-12-17T13:14:05.163Z,17.63
2018-12-17T13:16:33.816Z,19.37
2018-12-17T13:19:02.617Z,18.57
2018-12-17T13:21:30.911Z,18.97
2018-12-17T13:23:59.120Z,17.10
2018-12-17T13:26:27.294Z,19.17
2018-12-17T13:28:55.467Z,16.63
2018-12-17T13:31:23.780Z,19.10
2018-12-17T13:33:52.061Z,19.83
2018-12-17T13:36:21.780Z,21.27
2018-12-17T13:38:50.011Z,21.80
2018-12-17T13:41:18.212Z,21.37
2018-12-17T13:43:46.447Z,22.40
2018-12-17T13:46:14.615Z,19.63
2018-12-17T13:48:42.861Z,21.07
2018-12-17T13:51:16.635Z,19.07
2018-12-17T13:53:44.812Z,20.17
2018-12-17T13:56:13.030Z,20.90
2018-12-17T13:58:41.188Z,19.53
2018-12-17T14:01:09.345Z,19.80
2018-12-17T14:03:37.516Z,21.87
2018-12-17T14:06:05.736Z,21.93
2018-12-17T14:08:33.928Z,22.27
2018-12-17T14:11:02.111Z,20.63
2018-12-17T14:13:30.365Z,21.33
2018-12-17T14:16:04.008Z,19.30
2018-12-17T14:18:37.749Z,20.67
2018-12-17T14:21:11.366Z,22.13
2018-12-17T14:23:39.547Z,19.87
2018-12-17T14:26:07.756Z,19.77
2018-12-17T14:28:36.012Z,25.23
2018-12-17T14:31:04.412Z,21.67
2018-12-17T14:33:32.875Z,21.13
2018-12-17T14:36:06.364Z,21.00
2018-12-17T14:38:34.651Z,21.37
2018-12-17T14:41:03.059Z,20.53
2018-12-17T14:43:31.337Z,21.53
2018-12-17T14:45:59.539Z,21.73
2018-12-17T14:48:27.855Z,21.93
2018-12-17T14:50:56.056Z,22.87
2018-12-17T14:53:24.242Z,21.63
2018-12-17T14:55:52.804Z,23.63
2018-12-17T14:58:21.044Z,23.63
2018-12-17T15:01:41.357Z,22.53
2018-12-17T15:04:09.709Z,22.37
2018-12-17T15:06:38.741Z,24.43
2018-12-17T15:09:08.633Z,26.17
2018-12-17T15:11:37.144Z,25.50
2018-12-17T15:14:06.245Z,24.20
2018-12-17T15:16:34.608Z,25.33
2018-12-17T15:19:02.908Z,25.60
2018-12-17T15:21:31.140Z,26.73
2018-12-17T15:23:59.388Z,26.40
2018-12-17T15:26:27.714Z,26.93
2018-12-17T15:28:55.984Z,29.27
2018-12-17T15:31:24.300Z,25.97
2018-12-17T15:33:53.660Z,27.17
2018-12-17T15:36:21.922Z,26.77
2018-12-17T15:38:50.140Z,24.27
2018-12-17T15:41:18.308Z,26.03
2018-12-17T15:43:47.533Z,23.50
2018-12-17T15:46:15.741Z,25.97
2018-12-17T15:48:43.954Z,25.60
2018-12-17T15:51:13.017Z,27.37
2018-12-17T15:53:41.193Z,28.13
2018-12-17T15:56:09.396Z,29.63
2018-12-17T15:58:37.581Z,26.90
2018-12-17T16:01:05.872Z,28.57
2018-12-17T16:03:34.166Z,30.10
2018-12-17T16:06:02.405Z,27.20
2018-12-17T16:08:30.631Z,27.20
2018-12-17T16:10:58.934Z,29.30
2018-12-17T16:13:27.193Z,27.73
2018-12-17T16:15:55.427Z,26.33
2018-12-17T16:18:23.820Z,27.07
2018-12-17T16:20:52.135Z,26.57
2018-12-17T16:26:47.684Z,27.37
2018-12-17T16:29:15.923Z,27.30
2018-12-17T16:31:45.050Z,28.73
2018-12-17T16:34:13.308Z,28.53
2018-12-17T16:36:41.834Z,26.57
2018-12-17T16:39:10.046Z,26.30
2018-12-17T16:41:39.142Z,26.57
2018-12-17T16:44:08.287Z,26.17
2018-12-17T16:46:39.064Z,27.27
2018-12-17T16:49:07.231Z,26.47
2018-12-17T16:51:35.556Z,27.10
2018-12-17T16:54:03.836Z,28.20
2018-12-17T16:56:32.033Z,27.57
2018-12-17T16:59:00.502Z,29.73
2018-12-17T17:01:28.728Z,29.07
2018-12-17T17:03:56.894Z,28.27
2018-12-17T17:06:25.129Z,28.27
2018-12-17T17:08:53.343Z,28.47
2018-12-17T17:11:21.571Z,23.80
2018-12-17T17:13:49.817Z,27.67
2018-12-17T17:16:20.294Z,28.53
2018-12-17T17:18:48.502Z,26.87
2018-12-17T17:21:16.679Z,27.10
2018-12-17T17:23:45.777Z,24.77
2018-12-17T17:26:14.015Z,25.03
2018-12-17T17:28:42.287Z,25.03
2018-12-17T17:31:11.183Z,25.57
2018-12-17T17:33:39.407Z,23.93
2018-12-17T17:36:07.902Z,23.87
2018-12-17T17:38:36.684Z,25.23
2018-12-17T17:41:04.967Z,23.47
2018-12-17T17:43:33.264Z,23.80
2018-12-17T17:46:01.530Z,24.27
2018-12-17T17:48:29.888Z,22.13
2018-12-17T17:50:58.212Z,23.67
2018-12-17T17:53:26.463Z,22.37
2018-12-17T17:55:54.761Z,23.07
2018-12-17T17:58:23.055Z,24.40
2018-12-17T18:00:51.477Z,23.67
2018-12-17T18:03:20.105Z,23.40
2018-12-17T18:05:48.327Z,22.87
2018-12-17T18:08:16.603Z,23.10
2018-12-17T18:10:44.994Z,22.67
2018-12-17T18:13:13.847Z,21.53
2018-12-17T18:15:42.101Z,22.80
2018-12-17T18:18:10.389Z,22.63
2018-12-17T18:20:38.622Z,21.47
2018-12-17T18:23:07.949Z,20.60
2018-12-17T18:25:36.397Z,21.53
2018-12-17T18:28:06.405Z,20.57
2018-12-17T18:30:34.897Z,20.50
2018-12-17T18:33:03.091Z,20.07
2018-12-17T18:35:31.344Z,21.27
2018-12-17T18:37:59.570Z,23.13
2018-12-17T18:40:27.816Z,24.10
2018-12-17T18:42:56.076Z,23.17
2018-12-17T18:45:24.500Z,24.07
2018-12-17T18:47:53.500Z,25.83
2018-12-17T18:50:21.707Z,22.50
2018-12-17T18:52:49.935Z,23.03
2018-12-17T18:55:18.194Z,23.87
2018-12-17T18:57:46.412Z,23.60
2018-12-17T19:00:14.904Z,23.37
2018-12-17T19:02:43.936Z,22.53
2018-12-17T19:05:20.626Z,22.27
2018-12-17T19:07:50.785Z,23.47
2018-12-17T19:10:19.135Z,23.07
2018-12-17T19:12:47.474Z,24.50
2018-12-17T19:15:22.384Z,23.77
2018-12-17T19:17:50.691Z,22.73
2018-12-17T19:20:20.279Z,23.20
2018-12-17T19:22:49.026Z,19.00
2018-12-17T19:25:18.438Z,17.77
2018-12-17T19:27:48.730Z,16.73
2018-12-17T19:30:17.297Z,16.90
2018-12-17T19:32:47.066Z,15.73
2018-12-17T19:35:16.384Z,16.57
2018-12-17T19:37:47.792Z,15.60
2018-12-17T19:40:17.043Z,15.33
2018-12-17T19:42:47.579Z,14.90
2018-12-17T19:45:16.318Z,15.97
2018-12-17T19:47:44.982Z,15.00
2018-12-17T19:50:14.623Z,14.57
2018-12-17T19:52:43.409Z,15.53
2018-12-17T19:55:11.810Z,14.67
2018-12-17T19:57:41.088Z,16.90
2018-12-17T20:00:10.403Z,17.90
2018-12-17T20:02:47.178Z,18.23
2018-12-17T20:05:15.824Z,17.17
2018-12-17T20:07:49.191Z,18.30
2018-12-17T20:10:39.667Z,17.93
2018-12-17T20:13:08.540Z,18.90
2018-12-17T20:15:40.214Z,19.93
2018-12-17T20:18:11.595Z,19.77
2018-12-17T20:20:45.055Z,19.67
2018-12-17T20:23:20.904Z,20.37
2018-12-17T20:25:49.619Z,19.00
2018-12-17T20:28:18.785Z,20.53
2018-12-17T20:30:48.285Z,17.63
2018-12-17T20:33:48.362Z,20.20
2018-12-17T20:36:16.992Z,17.13
2018-12-17T20:38:45.921Z,18.47
2018-12-17T20:44:04.733Z,16.93
2018-12-17T20:46:34.364Z,18.63
2018-12-17T20:49:12.674Z,17.33
2018-12-17T20:54:51.972Z,19.50
2018-12-17T20:57:31.403Z,18.63
2018-12-17T21:00:24.030Z,19.67
2018-12-17T21:03:00.170Z,16.90
2018-12-17T21:07:36.239Z,16.80
2018-12-17T21:10:14.569Z,15.93
2018-12-17T21:12:58.739Z,18.73
2018-12-17T21:15:33.134Z,17.00
2018-12-17T21:18:11.817Z,16.50
2018-12-17T21:20:53.034Z,18.43
2018-12-17T21:23:38.937Z,17.60
2018-12-17T21:29:18.049Z,18.37
2018-12-17T21:31:47.155Z,19.17
2018-12-17T21:34:17.857Z,19.47
2018-12-17T21:36:46.535Z,19.27
2018-12-17T21:39:16.451Z,17.57
2018-12-17T21:41:49.167Z,17.97
2018-12-17T21:44:23.000Z,18.20
2018-12-17T21:46:53.399Z,17.20
2018-12-17T21:49:22.230Z,18.97
2018-12-17T21:54:44.156Z,17.23
2018-12-17T21:57:13.267Z,16.87
2018-12-17T22:00:01.847Z,17.63
2018-12-17T22:02:31.740Z,14.23
2018-12-17T22:05:04.148Z,17.90
2018-12-17T22:07:37.253Z,16.10
2018-12-17T22:12:54.982Z,18.93
2018-12-17T22:15:23.968Z,18.77
2018-12-17T22:17:59.276Z,19.00
2018-12-17T22:21:33.277Z,19.90
2018-12-17T22:24:03.993Z,19.40
2018-12-17T22:26:39.223Z,21.03
2018-12-17T22:29:19.935Z,21.77
2018-12-17T22:31:50.058Z,21.30
2018-12-17T22:34:34.261Z,21.13
2018-12-17T22:37:13.604Z,21.97
2018-12-17T22:39:50.257Z,19.93
2018-12-17T22:42:23.643Z,20.70
2018-12-17T22:44:53.559Z,20.37
2018-12-17T22:47:25.006Z,22.10
2018-12-17T23:10:12.148Z,20.37
2018-12-17T23:12:59.349Z,19.33
2018-12-17T23:15:42.260Z,18.97
2018-12-17T23:18:10.672Z,16.87
2018-12-17T23:20:43.929Z,17.07
2018-12-17T23:26:33.607Z,20.20
2018-12-17T23:29:15.428Z,18.57
2018-12-17T23:37:18.325Z,17.97
2018-12-17T23:39:52.210Z,19.53
2018-12-17T23:42:25.860Z,20.10
2018-12-17T23:44:57.087Z,17.73
2018-12-17T23:50:16.184Z,17.47
